INGA4: Red River, Index, AR

                                SHEF ID:       INGA4     Red River at Index, AR
STATION TYPE: Stream Gauge
Regulating: Stage = 19.80, Flow = 104273

PRECIP STAGE RIV-FLOW WTR-TEMP BAT-LOAD
in ft cfs F volt
Ccp-Rev Ccp-Rev Ccp-Rev Ccp-Rev Ccp-Rev
(America/Chicago)
02/20 00:00 0.00 2.82 9229 61.84 12.70
02/20 01:00 0.00 2.79 9117 61.65 12.67
02/20 02:00 0.00 2.76 9006 61.43 12.67
02/20 03:00 0.00 2.73 8894 61.20 12.64
02/20 04:00 0.00 2.70 8784 61.03 12.62
02/20 05:00 0.00 2.67 8673 60.93 12.60
02/20 06:00 0.00 2.63 8527 60.69 12.57
02/20 07:00 0.00 2.60 8417 60.49 12.56
02/20 08:00 0.00 2.58 8345 60.37 12.58
02/20 09:00 0.00 2.56 8272 60.28 13.69
02/20 10:00 0.00 2.52 8128 60.24 13.87
02/20 11:00 0.00 2.51 8092 60.28 13.68
02/20 12:00 0.00 2.47 7948 60.30 13.64
02/20 13:00 0.00 2.45 7876 60.44 13.58
02/20 14:00 0.00 2.43 7805 60.57 13.67
02/20 15:00 0.00 2.40 7698 60.71 13.55
02/20 16:00 0.00 2.38 7627 60.84 13.39
02/20 17:00 0.00 2.35 7521 60.89 13.33
02/20 18:00 0.00 2.32 7415 60.93 13.29
02/20 19:00 0.00 2.30 7345 60.87 12.99
02/20 20:00 0.00 2.28 7275 60.80 12.79
02/20 21:00 0.00 2.26 7205 60.71 12.73
02/20 22:00 0.00 2.24 7136 60.64 12.71
02/20 23:00 0.00 2.22 7066 60.58 12.70
Data processed at Sat 21Feb2026 05:11 GMT

NOTICE: If you are parsing this page

Please convert to using our Data API. Starting early 2026 we will be migrating to: https://water.usace.army.mil with modern pages rendered in JavaScript. When this migration completes you will no longer be able to scrape this page! CWMSDataAPI (CDA)

Timeseries IDs (TSIDs)

TSIDs used from left to right in the data table
INDX.Precip-Inc.Total.1Hour.1Hour.Ccp-Rev
INDX.Stage.Inst.1Hour.0.Ccp-Rev
INDX.Flow.Inst.1Hour.0.Ccp-Rev
INDX.Temp-Water.Inst.1Hour.0.Ccp-Rev
INDX.Volt-Battery Load.Inst.1Hour.0.Ccp-Rev

                            

All information presented herein is the property of the government of the United States of America and may be revised or deleted at any time without prior notice. Dissemination of this information without the expressed written consent of the Public Affairs Office, Tulsa District U.S. Army Corps of Engineers is strictly prohibited. These data are gathered electronically and, as presented, have NOT undergone any form of quality control. These data are NOT guaranteed to be valid or correct.